createdAt,value
2015-09-29T00:00:01.261Z,8.6
2015-09-29T00:00:19.729Z,8.6
2015-09-29T00:00:38.182Z,8.6
2015-09-29T00:00:56.560Z,8.6
2015-09-29T00:01:15.014Z,8.6
2015-09-29T00:01:33.435Z,8.6
2015-09-29T00:01:51.907Z,8.6
2015-09-29T00:02:10.360Z,8.6
2015-09-29T00:02:28.782Z,8.6
2015-09-29T00:02:47.204Z,8.7
2015-09-29T00:03:05.706Z,8.6
2015-09-29T00:03:24.190Z,8.6
2015-09-29T00:03:42.784Z,8.7
2015-09-29T00:04:01.490Z,8.7
2015-09-29T00:04:19.928Z,8.7
2015-09-29T00:04:38.740Z,8.6
2015-09-29T00:04:56.945Z,8.6
2015-09-29T00:05:15.524Z,8.6
2015-09-29T00:05:33.883Z,8.6
2015-09-29T00:05:52.336Z,8.6
2015-09-29T00:06:10.871Z,8.6
2015-09-29T00:06:29.543Z,8.6
2015-09-29T00:06:48.106Z,8.6
2015-09-29T00:07:06.562Z,8.7
2015-09-29T00:07:25.077Z,8.6
2015-09-29T00:07:43.499Z,8.6
2015-09-29T00:08:01.892Z,8.6
2015-09-29T00:08:20.376Z,8.6
2015-09-29T00:08:38.829Z,8.6
2015-09-29T00:08:57.408Z,8.6
2015-09-29T00:09:15.864Z,8.6
2015-09-29T00:09:34.254Z,8.6
2015-09-29T00:09:52.614Z,8.6
2015-09-29T00:10:11.022Z,8.6
2015-09-29T00:10:29.381Z,8.6
2015-09-29T00:10:48.116Z,8.6
2015-09-29T00:11:06.604Z,8.5
2015-09-29T00:11:25.073Z,8.5
2015-09-29T00:11:43.448Z,8.5
2015-09-29T00:12:01.919Z,8.5
2015-09-29T00:12:20.356Z,8.5
2015-09-29T00:12:38.794Z,8.5
2015-09-29T00:12:57.215Z,8.5
2015-09-29T00:13:15.781Z,8.5
2015-09-29T00:13:34.187Z,8.5
2015-09-29T00:13:52.687Z,8.5
2015-09-29T00:14:11.064Z,8.5
2015-09-29T00:14:29.486Z,8.5
2015-09-29T00:14:47.861Z,8.5
2015-09-29T00:15:06.239Z,8.6
2015-09-29T00:15:24.614Z,8.6
2015-09-29T00:15:43.005Z,8.5
2015-09-29T00:16:01.505Z,8.5
2015-09-29T00:16:19.961Z,8.6
2015-09-29T00:16:38.617Z,8.6
2015-09-29T00:16:56.461Z,8.6
2015-09-29T00:17:14.932Z,8.6
2015-09-29T00:17:33.353Z,8.6
2015-09-29T00:17:51.713Z,8.6
2015-09-29T00:18:10.075Z,8.6
2015-09-29T00:18:28.560Z,8.6
2015-09-29T00:18:47.028Z,8.7
2015-09-29T00:19:05.388Z,8.6
2015-09-29T00:19:23.766Z,8.6
2015-09-29T00:19:42.125Z,8.6
2015-09-29T00:20:00.547Z,8.6
2015-09-29T00:20:18.924Z,8.6
2015-09-29T00:20:37.283Z,8.6
2015-09-29T00:20:55.752Z,8.6
2015-09-29T00:21:14.224Z,8.6
2015-09-29T00:21:32.661Z,8.6
2015-09-29T00:21:51.036Z,8.6
2015-09-29T00:22:09.411Z,8.6
2015-09-29T00:22:27.789Z,8.5
2015-09-29T00:22:46.180Z,8.6
2015-09-29T00:23:04.602Z,8.6
2015-09-29T00:23:22.995Z,8.5
2015-09-29T00:23:41.386Z,8.6
2015-09-29T00:23:59.839Z,8.6
2015-09-29T00:24:18.577Z,8.6
2015-09-29T00:24:37.077Z,8.6
2015-09-29T00:24:55.436Z,8.6
2015-09-29T00:25:13.876Z,8.6
2015-09-29T00:25:32.298Z,8.6
2015-09-29T00:25:50.767Z,8.5
2015-09-29T00:26:09.330Z,8.5
2015-09-29T00:26:27.925Z,8.5
2015-09-29T00:26:46.441Z,8.5
2015-09-29T00:27:04.800Z,8.5
2015-09-29T00:27:23.288Z,8.6
2015-09-29T00:27:41.850Z,8.5
2015-09-29T00:28:00.397Z,8.5
2015-09-29T00:28:18.838Z,8.5
2015-09-29T00:28:37.244Z,8.5
2015-09-29T00:28:55.791Z,8.5
2015-09-29T00:29:14.228Z,8.5
2015-09-29T00:29:32.761Z,8.6
2015-09-29T00:29:51.215Z,8.5
2015-09-29T00:30:09.715Z,8.5
2015-09-29T00:30:28.296Z,8.4
2015-09-29T00:30:47.046Z,8.4
2015-09-29T00:31:05.452Z,8.5
2015-09-29T00:31:23.861Z,8.5
2015-09-29T00:31:42.236Z,8.5
2015-09-29T00:32:00.596Z,8.4
2015-09-29T00:32:18.955Z,8.4
2015-09-29T00:32:37.349Z,8.4
2015-09-29T00:32:56.099Z,8.3
2015-09-29T00:33:14.880Z,8.2
2015-09-29T00:33:33.258Z,8.2
2015-09-29T00:33:51.617Z,8.2
2015-09-29T00:34:09.992Z,8.2
2015-09-29T00:34:28.433Z,8.2
2015-09-29T00:34:46.855Z,8.1
2015-09-29T00:35:05.370Z,8.1
2015-09-29T00:35:23.901Z,8.1
2015-09-29T00:35:42.310Z,8.1
2015-09-29T00:36:00.732Z,8
2015-09-29T00:36:19.091Z,8.1
2015-09-29T00:36:37.577Z,8
2015-09-29T00:36:56.140Z,8
2015-09-29T00:37:14.937Z,7.9
2015-09-29T00:37:33.331Z,8
2015-09-29T00:37:51.706Z,8
2015-09-29T00:38:10.066Z,8
2015-09-29T00:38:28.456Z,7.9
2015-09-29T00:38:46.818Z,7.8
2015-09-29T00:39:05.240Z,7.8
2015-09-29T00:39:23.818Z,7.8
2015-09-29T00:39:42.227Z,7.8
2015-09-29T00:40:00.696Z,7.8
2015-09-29T00:40:19.118Z,7.8
2015-09-29T00:40:37.511Z,7.8
2015-09-29T00:40:55.949Z,7.9
2015-09-29T00:41:14.371Z,7.9
2015-09-29T00:41:32.761Z,7.8
2015-09-29T00:41:51.186Z,7.7
2015-09-29T00:42:09.561Z,7.8
2015-09-29T00:42:27.936Z,7.8
2015-09-29T00:42:46.344Z,7.8
2015-09-29T00:43:04.829Z,7.8
2015-09-29T00:43:23.391Z,7.8
2015-09-29T00:43:41.941Z,7.8
2015-09-29T00:44:00.363Z,7.8
2015-09-29T00:44:18.754Z,7.9
2015-09-29T00:44:37.191Z,7.8
2015-09-29T00:44:55.740Z,7.7
2015-09-29T00:45:14.287Z,7.6
2015-09-29T00:45:32.834Z,7.6
2015-09-29T00:45:51.213Z,7.6
2015-09-29T00:46:09.650Z,7.6
2015-09-29T00:46:28.275Z,7.6
2015-09-29T00:46:46.699Z,7.6
2015-09-29T00:47:05.105Z,7.6
2015-09-29T00:47:23.668Z,7.6
2015-09-29T00:47:42.137Z,7.6
2015-09-29T00:48:00.577Z,7.6
2015-09-29T00:48:19.061Z,7.5
2015-09-29T00:48:37.468Z,7.5
2015-09-29T00:48:55.923Z,7.5
2015-09-29T00:49:14.735Z,7.4
2015-09-29T00:49:33.095Z,7.4
2015-09-29T00:49:51.489Z,7.4
2015-09-29T00:50:09.974Z,7.3
2015-09-29T00:50:28.458Z,7.3
2015-09-29T00:50:46.849Z,7.4
2015-09-29T00:51:05.413Z,7.4
2015-09-29T00:51:23.882Z,7.4
2015-09-29T00:51:42.523Z,7.4
2015-09-29T00:52:00.932Z,7.4
2015-09-29T00:52:19.338Z,7.3
2015-09-29T00:52:37.697Z,7.4
2015-09-29T00:52:56.075Z,7.4
2015-09-29T00:53:14.450Z,7.4
2015-09-29T00:53:32.950Z,7.4
2015-09-29T00:53:51.372Z,7.4
2015-09-29T00:54:09.812Z,7.4
2015-09-29T00:54:28.234Z,7.4
2015-09-29T00:54:47.109Z,7.4
2015-09-29T00:55:05.487Z,7.4
2015-09-29T00:55:23.987Z,7.3
2015-09-29T00:55:42.409Z,7.4
2015-09-29T00:56:01.037Z,7.3
2015-09-29T00:56:19.427Z,7.3
2015-09-29T00:56:37.865Z,7.3
2015-09-29T00:56:56.242Z,7.3
2015-09-29T00:57:14.601Z,7.3
2015-09-29T00:57:33.085Z,7.3
2015-09-29T00:57:51.539Z,7.4
2015-09-29T00:58:10.026Z,7.4
2015-09-29T00:58:28.432Z,7.4
2015-09-29T00:58:46.838Z,7.3
2015-09-29T00:59:05.247Z,7.3
2015-09-29T00:59:24.059Z,7.3
2015-09-29T00:59:42.528Z,7.4
2015-09-29T01:00:00.968Z,7.3
2015-09-29T01:00:19.515Z,7.2
2015-09-29T01:00:37.953Z,7.1
2015-09-29T01:00:56.675Z,7.1
2015-09-29T01:01:15.206Z,7.1
2015-09-29T01:01:33.659Z,7.1
2015-09-29T01:01:52.143Z,7.1
2015-09-29T01:02:10.678Z,7.2
2015-09-29T01:02:29.084Z,7.1
2015-09-29T01:02:47.584Z,7
2015-09-29T01:03:05.993Z,7
2015-09-29T01:03:24.493Z,7
2015-09-29T01:03:43.056Z,7
2015-09-29T01:04:01.434Z,7.1
2015-09-29T01:04:19.840Z,7.1
2015-09-29T01:04:38.371Z,7
2015-09-29T01:04:56.824Z,7
2015-09-29T01:05:15.264Z,7
2015-09-29T01:05:33.623Z,7
2015-09-29T01:05:52.154Z,7
2015-09-29T01:06:10.751Z,7.1
2015-09-29T01:06:29.173Z,7.1
2015-09-29T01:06:47.610Z,7.1
2015-09-29T01:07:06.097Z,7.1
2015-09-29T01:07:24.644Z,7.1
2015-09-29T01:07:43.003Z,7.1
2015-09-29T01:08:01.397Z,7.1
2015-09-29T01:08:20.006Z,7.1
2015-09-29T01:08:38.397Z,7.2
2015-09-29T01:08:56.834Z,7.2
2015-09-29T01:09:15.259Z,7.1
2015-09-29T01:09:33.884Z,7.1
2015-09-29T01:09:52.368Z,7.1
2015-09-29T01:10:11.043Z,7.1
2015-09-29T01:10:29.481Z,7.2
2015-09-29T01:10:47.871Z,7.1
2015-09-29T01:11:06.359Z,7.1
2015-09-29T01:11:24.890Z,7.1
2015-09-29T01:11:43.499Z,7.1
2015-09-29T01:12:01.906Z,7.1
2015-09-29T01:12:20.534Z,7.1
2015-09-29T01:12:38.971Z,7.1
2015-09-29T01:12:57.362Z,7.1
2015-09-29T01:13:15.786Z,7.1
2015-09-29T01:13:34.161Z,7.1
2015-09-29T01:13:52.629Z,7
2015-09-29T01:14:11.132Z,7
2015-09-29T01:14:29.679Z,7.1
2015-09-29T01:14:48.039Z,7.1
2015-09-29T01:15:06.445Z,7.1
2015-09-29T01:15:25.134Z,7.1
2015-09-29T01:15:43.588Z,7.1
2015-09-29T01:16:01.978Z,7.1
2015-09-29T01:16:20.434Z,7.2
2015-09-29T01:16:38.919Z,7.1
2015-09-29T01:16:57.122Z,7.1
2015-09-29T01:17:15.484Z,7.1
2015-09-29T01:17:33.859Z,7.1
2015-09-29T01:17:52.219Z,7.1
2015-09-29T01:18:10.672Z,7.2
2015-09-29T01:18:29.065Z,7.1
2015-09-29T01:18:47.503Z,7.1
2015-09-29T01:19:05.909Z,7.1
2015-09-29T01:19:24.334Z,7.1
2015-09-29T01:19:42.693Z,7
2015-09-29T01:20:01.162Z,7
2015-09-29T01:20:19.586Z,7.1
2015-09-29T01:20:37.977Z,7
2015-09-29T01:20:56.383Z,7.1
2015-09-29T01:21:14.805Z,7
2015-09-29T01:21:33.276Z,7
2015-09-29T01:21:51.776Z,7
2015-09-29T01:22:10.198Z,6.9
2015-09-29T01:22:28.936Z,7
2015-09-29T01:22:47.295Z,7
2015-09-29T01:23:05.795Z,7
2015-09-29T01:23:24.157Z,6.9
2015-09-29T01:23:42.517Z,6.9
2015-09-29T01:24:00.907Z,6.9
2015-09-29T01:24:19.345Z,6.9
2015-09-29T01:24:37.909Z,6.9
2015-09-29T01:24:56.769Z,7
2015-09-29T01:25:15.159Z,7
2015-09-29T01:25:33.741Z,7
2015-09-29T01:25:52.428Z,6.9
2015-09-29T01:26:10.787Z,7
2015-09-29T01:26:29.603Z,6.9
2015-09-29T01:26:48.056Z,7
2015-09-29T01:27:06.431Z,6.9
2015-09-29T01:27:24.697Z,6.9
2015-09-29T01:27:43.230Z,6.9
2015-09-29T01:28:01.761Z,6.9
2015-09-29T01:28:20.277Z,6.9
2015-09-29T01:28:38.859Z,6.9
2015-09-29T01:28:57.406Z,6.9
2015-09-29T01:29:15.906Z,6.9
2015-09-29T01:29:34.361Z,6.9
2015-09-29T01:29:52.752Z,6.9
2015-09-29T01:30:11.111Z,6.9
2015-09-29T01:30:29.470Z,6.8
2015-09-29T01:30:47.833Z,6.9
2015-09-29T01:31:06.192Z,6.9
2015-09-29T01:31:24.567Z,6.8
2015-09-29T01:31:42.945Z,6.8
2015-09-29T01:32:01.476Z,6.8
2015-09-29T01:32:19.914Z,6.8
2015-09-29T01:32:38.322Z,6.8
2015-09-29T01:32:56.760Z,6.7
2015-09-29T01:33:15.119Z,6.7
2015-09-29T01:33:33.603Z,6.7
2015-09-29T01:33:51.981Z,6.7
2015-09-29T01:34:10.356Z,6.6
2015-09-29T01:34:28.841Z,6.6
2015-09-29T01:34:47.219Z,6.7
2015-09-29T01:35:05.687Z,6.7
2015-09-29T01:35:24.031Z,6.6
2015-09-29T01:35:42.597Z,6.6
2015-09-29T01:36:01.144Z,6.6
2015-09-29T01:36:19.503Z,6.6
2015-09-29T01:36:38.019Z,6.6
2015-09-29T01:36:56.459Z,6.6
2015-09-29T01:37:14.865Z,6.6
2015-09-29T01:37:33.272Z,6.6
2015-09-29T01:37:51.665Z,6.6
2015-09-29T01:38:10.025Z,6.6
2015-09-29T01:38:28.415Z,6.6
2015-09-29T01:38:46.823Z,6.5
2015-09-29T01:39:05.183Z,6.5
2015-09-29T01:39:23.683Z,6.6
2015-09-29T01:39:42.105Z,6.6
2015-09-29T01:40:00.467Z,6.6
2015-09-29T01:40:18.873Z,6.6
2015-09-29T01:40:37.295Z,6.6
2015-09-29T01:40:55.798Z,6.6
2015-09-29T01:41:14.189Z,6.5
2015-09-29T01:41:32.579Z,6.5
2015-09-29T01:41:50.941Z,6.5
2015-09-29T01:42:09.378Z,6.5
2015-09-29T01:42:27.816Z,6.5
2015-09-29T01:42:46.300Z,6.5
2015-09-29T01:43:04.663Z,6.5
2015-09-29T01:43:23.069Z,6.5
2015-09-29T01:43:41.444Z,6.5
2015-09-29T01:43:59.806Z,6.4
2015-09-29T01:44:18.212Z,6.4
2015-09-29T01:44:36.744Z,6.4
2015-09-29T01:44:55.105Z,6.4
2015-09-29T01:45:13.511Z,6.4
2015-09-29T01:45:31.871Z,6.4
2015-09-29T01:45:50.230Z,6.4
2015-09-29T01:46:08.592Z,6.4
2015-09-29T01:46:26.983Z,6.4
2015-09-29T01:46:45.358Z,6.3
2015-09-29T01:47:03.783Z,6.3
2015-09-29T01:47:22.252Z,6.3
2015-09-29T01:47:40.627Z,6.3
2015-09-29T01:47:59.005Z,6.4
2015-09-29T01:48:17.442Z,6.3
2015-09-29T01:48:35.880Z,6.3
2015-09-29T01:48:54.288Z,6.3
2015-09-29T01:49:12.772Z,6.3
2015-09-29T01:49:31.179Z,6.3
2015-09-29T01:49:49.585Z,6.3
2015-09-29T01:50:07.947Z,6.3
2015-09-29T01:50:26.588Z,6.3
2015-09-29T01:50:44.916Z,6.3
2015-09-29T01:51:03.341Z,6.2
2015-09-29T01:51:21.778Z,6.2
2015-09-29T01:51:40.138Z,6.2
2015-09-29T01:51:58.562Z,6.3
2015-09-29T01:52:16.952Z,6.3
2015-09-29T01:52:35.593Z,6.3
2015-09-29T01:52:54.140Z,6.3
2015-09-29T01:53:12.533Z,6.3
2015-09-29T01:53:30.971Z,6.3
2015-09-29T01:53:49.346Z,6.3
2015-09-29T01:54:07.771Z,6.3
2015-09-29T01:54:26.146Z,6.3
2015-09-29T01:54:44.583Z,6.3
2015-09-29T01:55:03.008Z,6.3
2015-09-29T01:55:21.383Z,6.3
2015-09-29T01:55:39.774Z,6.2
2015-09-29T01:55:58.149Z,6.2
2015-09-29T01:56:16.526Z,6.2
2015-09-29T01:56:34.916Z,6.2
2015-09-29T01:56:53.260Z,6.2
2015-09-29T01:57:11.794Z,6.2
2015-09-29T01:57:30.169Z,6.2
2015-09-29T01:57:48.607Z,6.2
2015-09-29T01:58:06.969Z,6.2
2015-09-29T01:58:25.329Z,6.2
2015-09-29T01:58:43.688Z,6.2
2015-09-29T01:59:02.110Z,6.2
2015-09-29T01:59:20.519Z,6.1
2015-09-29T01:59:38.878Z,6.1
2015-09-29T01:59:57.316Z,6.1
2015-09-29T02:00:15.725Z,6.1
2015-09-29T02:00:34.085Z,6.1
2015-09-29T02:00:52.460Z,6.1
2015-09-29T02:01:10.821Z,6.2
2015-09-29T02:01:29.243Z,6.2
2015-09-29T02:01:47.633Z,6.2
2015-09-29T02:02:05.993Z,6.1
2015-09-29T02:02:24.465Z,6.1
2015-09-29T02:02:42.683Z,6.2
2015-09-29T02:03:01.058Z,6.2
2015-09-29T02:03:19.577Z,6.2
2015-09-29T02:03:38.046Z,6.1
2015-09-29T02:03:56.405Z,6.1
2015-09-29T02:04:14.813Z,6.1
2015-09-29T02:04:33.298Z,6.1
2015-09-29T02:04:51.673Z,6.1
2015-09-29T02:05:10.063Z,6.1
2015-09-29T02:05:28.441Z,6.1
2015-09-29T02:05:46.816Z,6.1
2015-09-29T02:06:05.332Z,6.1
2015-09-29T02:06:23.679Z,6.1
2015-09-29T02:06:42.054Z,6.2
2015-09-29T02:07:00.616Z,6.2
2015-09-29T02:07:19.010Z,6.2
2015-09-29T02:07:37.447Z,6.2
2015-09-29T02:07:55.979Z,6.3
2015-09-29T02:08:14.338Z,6.3
2015-09-29T02:08:32.699Z,6.2
2015-09-29T02:08:51.106Z,6.2
2015-09-29T02:09:09.449Z,6.2
2015-09-29T02:09:28.374Z,6.2
2015-09-29T02:09:46.765Z,6.2
2015-09-29T02:10:05.124Z,6.2
2015-09-29T02:10:23.518Z,6.2
2015-09-29T02:10:41.877Z,6.2
2015-09-29T02:11:00.299Z,6.2
2015-09-29T02:11:18.752Z,6.2
2015-09-29T02:11:37.114Z,6.3
2015-09-29T02:11:55.551Z,6.3
2015-09-29T02:12:13.942Z,6.4
2015-09-29T02:12:32.352Z,6.4
2015-09-29T02:12:50.711Z,6.5
2015-09-29T02:13:09.321Z,6.5
2015-09-29T02:13:28.666Z,6.6
2015-09-29T02:13:47.026Z,6.6
2015-09-29T02:14:05.479Z,6.6
2015-09-29T02:14:23.885Z,6.6
2015-09-29T02:14:42.341Z,6.6
2015-09-29T02:15:00.763Z,6.4
2015-09-29T02:15:19.326Z,6.4
2015-09-29T02:15:37.844Z,6.5
2015-09-29T02:15:56.547Z,6.5
2015-09-29T02:16:14.907Z,6.5
2015-09-29T02:16:33.315Z,6.5
2015-09-29T02:16:51.706Z,6.5
2015-09-29T02:17:10.128Z,6.5
2015-09-29T02:17:28.690Z,6.4
2015-09-29T02:17:47.177Z,6.4
2015-09-29T02:18:05.537Z,6.4
2015-09-29T02:18:24.146Z,6.4
2015-09-29T02:18:42.524Z,6.4
2015-09-29T02:19:00.884Z,6.4
2015-09-29T02:19:19.321Z,6.3
2015-09-29T02:19:37.823Z,6.3
2015-09-29T02:19:56.136Z,6.3
2015-09-29T02:20:14.557Z,6.3
2015-09-29T02:20:32.979Z,6.3
2015-09-29T02:20:51.545Z,6.3
2015-09-29T02:21:09.982Z,6.4
2015-09-29T02:21:28.560Z,6.3
2015-09-29T02:21:46.954Z,6.3
2015-09-29T02:22:05.501Z,6.3
2015-09-29T02:22:24.048Z,6.3
2015-09-29T02:22:42.566Z,6.3
2015-09-29T02:23:00.973Z,6.3
2015-09-29T02:23:19.395Z,6.4
2015-09-29T02:23:37.754Z,6.4
2015-09-29T02:23:56.147Z,6.3
2015-09-29T02:24:14.568Z,6.3
2015-09-29T02:24:32.959Z,6.3
2015-09-29T02:24:51.415Z,6.3
2015-09-29T02:25:09.853Z,6.3
2015-09-29T02:25:28.259Z,6.3
2015-09-29T02:25:46.841Z,6.3
2015-09-29T02:26:05.232Z,6.3
2015-09-29T02:26:23.669Z,6.2
2015-09-29T02:26:42.044Z,6.2
2015-09-29T02:27:00.437Z,6.2
2015-09-29T02:27:18.827Z,6.2
2015-09-29T02:27:37.234Z,6.3
2015-09-29T02:27:55.595Z,6.4
2015-09-29T02:28:13.986Z,6.4
2015-09-29T02:28:32.392Z,6.4
2015-09-29T02:28:50.865Z,6.4
2015-09-29T02:29:09.255Z,6.5
2015-09-29T02:29:27.849Z,6.4
2015-09-29T02:29:46.554Z,6.4
2015-09-29T02:30:04.929Z,6.4
2015-09-29T02:30:23.320Z,6.4
2015-09-29T02:30:41.679Z,6.4
2015-09-29T02:31:00.120Z,6.5
2015-09-29T02:31:18.620Z,6.5
2015-09-29T02:31:37.213Z,6.5
2015-09-29T02:31:55.748Z,6.5
2015-09-29T02:32:14.232Z,6.4
2015-09-29T02:32:32.607Z,6.4
2015-09-29T02:32:51.281Z,6.3
2015-09-29T02:33:09.718Z,6.3
2015-09-29T02:33:28.203Z,6.3
2015-09-29T02:33:46.625Z,6.3
2015-09-29T02:34:05.034Z,6.4
2015-09-29T02:34:23.628Z,6.4
2015-09-29T02:34:42.081Z,6.5
2015-09-29T02:35:00.536Z,6.6
2015-09-29T02:35:18.927Z,6.6
2015-09-29T02:35:37.333Z,6.6
2015-09-29T02:35:55.992Z,6.6
2015-09-29T02:36:14.570Z,6.7
2015-09-29T02:36:32.961Z,6.7
2015-09-29T02:36:51.323Z,6.7
2015-09-29T02:37:09.776Z,6.6
2015-09-29T02:37:28.183Z,6.6
2015-09-29T02:37:46.683Z,6.6
2015-09-29T02:38:05.170Z,6.6
2015-09-29T02:38:23.592Z,6.5
2015-09-29T02:38:42.076Z,6.5
2015-09-29T02:39:00.439Z,6.5
2015-09-29T02:39:18.798Z,6.5
2015-09-29T02:39:37.329Z,6.5
2015-09-29T02:39:55.723Z,6.5
2015-09-29T02:40:14.129Z,6.6
2015-09-29T02:40:32.582Z,6.6
2015-09-29T02:40:50.988Z,6.7
2015-09-29T02:41:09.459Z,6.6
2015-09-29T02:41:27.865Z,6.6
2015-09-29T02:41:46.225Z,6.5
2015-09-29T02:42:04.821Z,6.5
2015-09-29T02:42:23.274Z,6.5
2015-09-29T02:42:42.117Z,6.4
2015-09-29T02:43:00.496Z,6.4
2015-09-29T02:43:19.075Z,6.5
2015-09-29T02:43:37.559Z,6.5
2015-09-29T02:43:56.045Z,6.4
2015-09-29T02:44:14.498Z,6.4
2015-09-29T02:44:32.873Z,6.4
2015-09-29T02:44:51.342Z,6.4
2015-09-29T02:45:10.126Z,6.4
2015-09-29T02:45:28.533Z,6.4
2015-09-29T02:45:46.955Z,6.4
2015-09-29T02:46:05.316Z,6.5
2015-09-29T02:46:23.785Z,6.4
2015-09-29T02:46:42.253Z,6.4
2015-09-29T02:47:00.695Z,6.4
2015-09-29T02:47:19.054Z,6.4
2015-09-29T02:47:37.429Z,6.4
2015-09-29T02:47:55.789Z,6.4
2015-09-29T02:48:14.275Z,6.4
2015-09-29T02:48:32.681Z,6.4
2015-09-29T02:48:51.072Z,6.5
2015-09-29T02:49:09.465Z,6.5
2015-09-29T02:49:27.871Z,6.5
2015-09-29T02:49:46.246Z,6.6
2015-09-29T02:50:04.733Z,6.6
2015-09-29T02:50:23.093Z,6.6
2015-09-29T02:50:41.561Z,6.7
2015-09-29T02:50:59.999Z,6.7
2015-09-29T02:51:18.581Z,6.7
2015-09-29T02:51:36.987Z,6.7
2015-09-29T02:51:55.581Z,6.6
2015-09-29T02:52:13.989Z,6.6
2015-09-29T02:52:32.520Z,6.6
2015-09-29T02:52:50.880Z,6.6
2015-09-29T02:53:09.351Z,6.7
2015-09-29T02:53:27.851Z,6.6
2015-09-29T02:53:46.288Z,6.6
2015-09-29T02:54:04.679Z,6.5
2015-09-29T02:54:23.088Z,6.4
2015-09-29T02:54:41.525Z,6.4
2015-09-29T02:54:59.932Z,6.4
2015-09-29T02:55:18.357Z,6.4
2015-09-29T02:55:36.732Z,6.5
2015-09-29T02:55:55.138Z,6.5
2015-09-29T02:56:13.531Z,6.5
2015-09-29T02:56:31.891Z,6.4
2015-09-29T02:56:50.281Z,6.4
2015-09-29T02:57:08.047Z,6.4
2015-09-29T02:57:26.769Z,6.4
2015-09-29T02:57:45.300Z,6.3
2015-09-29T02:58:03.800Z,6.3
2015-09-29T02:58:22.256Z,6.3
2015-09-29T02:58:40.819Z,6.3
2015-09-29T02:58:59.366Z,6.3
2015-09-29T02:59:17.868Z,6.3
2015-09-29T02:59:36.274Z,6.3
2015-09-29T02:59:54.696Z,6.4
2015-09-29T03:00:13.352Z,6.5
2015-09-29T03:00:31.886Z,6.4
2015-09-29T03:00:50.386Z,6.3
2015-09-29T03:01:08.746Z,6.3
2015-09-29T03:01:27.202Z,6.4
2015-09-29T03:01:45.561Z,6.4
2015-09-29T03:02:03.999Z,6.4
2015-09-29T03:02:22.377Z,6.3
2015-09-29T03:02:40.892Z,6.3
2015-09-29T03:02:59.330Z,6.3
2015-09-29T03:03:18.033Z,6.3
2015-09-29T03:03:36.536Z,6.3
2015-09-29T03:03:54.973Z,6.2
2015-09-29T03:04:13.426Z,6.3
2015-09-29T03:04:31.819Z,6.3
2015-09-29T03:04:50.210Z,6.3
2015-09-29T03:05:08.616Z,6.3
2015-09-29T03:05:27.041Z,6.4
2015-09-29T03:05:45.431Z,6.4
2015-09-29T03:06:03.806Z,6.3
2015-09-29T03:06:22.216Z,6.3
2015-09-29T03:06:40.809Z,6.3
2015-09-29T03:06:59.309Z,6.4
2015-09-29T03:07:17.669Z,6.4
2015-09-29T03:07:36.186Z,6.4
2015-09-29T03:07:54.624Z,6.4
2015-09-29T03:08:13.077Z,6.4
2015-09-29T03:08:31.580Z,6.4
2015-09-29T03:08:49.939Z,6.4
2015-09-29T03:09:08.518Z,6.5
2015-09-29T03:09:26.926Z,6.5
2015-09-29T03:09:45.488Z,6.5
2015-09-29T03:10:04.035Z,6.5
2015-09-29T03:10:22.426Z,6.4
2015-09-29T03:10:40.944Z,6.4
2015-09-29T03:10:59.319Z,6.5
2015-09-29T03:11:17.773Z,6.5
2015-09-29T03:11:36.136Z,6.4
2015-09-29T03:11:54.636Z,6.4
2015-09-29T03:12:13.058Z,6.4
2015-09-29T03:12:31.419Z,6.4
2015-09-29T03:12:49.841Z,6.5
2015-09-29T03:13:08.279Z,6.5
2015-09-29T03:13:26.732Z,6.5
2015-09-29T03:13:45.172Z,6.6
2015-09-29T03:14:03.547Z,6.6
2015-09-29T03:14:22.188Z,6.6
2015-09-29T03:14:40.597Z,6.6
2015-09-29T03:14:58.972Z,6.6
2015-09-29T03:15:17.378Z,6.5
2015-09-29T03:15:35.803Z,6.6
2015-09-29T03:15:54.163Z,6.6
2015-09-29T03:16:12.756Z,6.7
2015-09-29T03:16:31.209Z,6.7
2015-09-29T03:16:49.602Z,6.6
2015-09-29T03:17:07.977Z,6.7
2015-09-29T03:17:26.336Z,6.6
2015-09-29T03:17:44.855Z,6.6
2015-09-29T03:18:03.246Z,6.6
2015-09-29T03:18:21.605Z,6.6
2015-09-29T03:18:40.060Z,6.5
2015-09-29T03:18:58.435Z,6.5
2015-09-29T03:19:16.826Z,6.6
2015-09-29T03:19:35.232Z,6.5
2015-09-29T03:19:53.626Z,6.6
2015-09-29T03:20:12.016Z,6.7
2015-09-29T03:20:30.391Z,6.7
2015-09-29T03:20:48.785Z,6.7
2015-09-29T03:21:07.301Z,6.7
2015-09-29T03:21:25.722Z,6.7
2015-09-29T03:21:44.241Z,6.8
2015-09-29T03:22:02.866Z,6.8
2015-09-29T03:22:21.257Z,6.8
2015-09-29T03:22:39.663Z,6.7
2015-09-29T03:22:58.010Z,6.7
2015-09-29T03:23:16.416Z,6.7
2015-09-29T03:23:35.182Z,6.7
2015-09-29T03:23:53.590Z,6.8
2015-09-29T03:24:11.980Z,6.8
2015-09-29T03:24:30.387Z,6.8
2015-09-29T03:24:48.780Z,6.8
2015-09-29T03:25:07.171Z,6.8
2015-09-29T03:25:25.546Z,6.9
2015-09-29T03:25:43.952Z,6.8
2015-09-29T03:26:02.376Z,6.8
2015-09-29T03:26:20.892Z,6.8
2015-09-29T03:26:39.267Z,6.9
2015-09-29T03:26:57.707Z,6.9
2015-09-29T03:27:16.098Z,6.9
2015-09-29T03:27:34.707Z,6.9
2015-09-29T03:27:53.101Z,6.9
2015-09-29T03:28:11.507Z,6.9
2015-09-29T03:28:29.991Z,6.9
2015-09-29T03:28:48.335Z,6.8
2015-09-29T03:29:06.822Z,6.8
2015-09-29T03:29:25.322Z,6.8
2015-09-29T03:29:43.728Z,6.8
2015-09-29T03:30:02.434Z,6.9
2015-09-29T03:30:20.950Z,6.8
2015-09-29T03:30:39.309Z,6.8
2015-09-29T03:30:57.781Z,6.8
2015-09-29T03:31:16.156Z,6.8
2015-09-29T03:31:34.531Z,6.8
2015-09-29T03:31:52.956Z,6.8
2015-09-29T03:32:11.346Z,6.8
2015-09-29T03:32:29.737Z,6.8
2015-09-29T03:32:48.159Z,6.9
2015-09-29T03:33:06.599Z,6.9
2015-09-29T03:33:25.005Z,6.9
2015-09-29T03:33:43.443Z,6.8
2015-09-29T03:34:01.805Z,6.8
2015-09-29T03:34:20.165Z,6.9
2015-09-29T03:34:38.555Z,6.9
2015-09-29T03:34:56.995Z,6.9
2015-09-29T03:35:15.542Z,6.9
2015-09-29T03:35:33.995Z,6.8
2015-09-29T03:35:52.354Z,6.8
2015-09-29T03:36:10.795Z,6.8
2015-09-29T03:36:29.310Z,6.7
2015-09-29T03:36:47.685Z,6.8
2015-09-29T03:37:06.048Z,6.8
2015-09-29T03:37:24.407Z,6.8
2015-09-29T03:37:42.766Z,6.8
2015-09-29T03:38:01.144Z,6.8
2015-09-29T03:38:19.519Z,6.9
2015-09-29T03:38:37.848Z,6.9
2015-09-29T03:38:56.238Z,6.9
2015-09-29T03:39:14.678Z,6.9
2015-09-29T03:39:33.178Z,6.9
2015-09-29T03:39:51.553Z,7
2015-09-29T03:40:10.055Z,6.9
2015-09-29T03:40:28.602Z,6.9
2015-09-29T03:40:46.977Z,6.9
2015-09-29T03:41:05.402Z,6.9
2015-09-29T03:41:23.840Z,6.9
2015-09-29T03:41:42.262Z,6.9
2015-09-29T03:42:00.684Z,6.9
2015-09-29T03:42:19.187Z,6.8
2015-09-29T03:42:37.609Z,6.8
2015-09-29T03:42:56.077Z,6.8
2015-09-29T03:43:17.423Z,6.7
2015-09-29T03:43:35.829Z,6.7
2015-09-29T03:43:54.204Z,6.8
2015-09-29T03:44:12.613Z,6.8
2015-09-29T03:44:31.019Z,6.8
2015-09-29T03:44:49.597Z,6.8
2015-09-29T03:45:08.413Z,6.8
2015-09-29T03:45:26.945Z,6.8
2015-09-29T03:45:45.398Z,6.9
2015-09-29T03:46:03.851Z,6.9
2015-09-29T03:46:22.322Z,6.9
2015-09-29T03:46:40.806Z,6.9
2015-09-29T03:46:59.306Z,6.9
2015-09-29T03:47:17.700Z,6.9
2015-09-29T03:47:36.465Z,6.8
2015-09-29T03:47:54.918Z,6.8
2015-09-29T03:48:13.265Z,6.9
2015-09-29T03:48:31.718Z,6.9
2015-09-29T03:48:50.093Z,7
2015-09-29T03:49:08.578Z,6.9
2015-09-29T03:49:26.955Z,6.9
2015-09-29T03:49:45.408Z,7
2015-09-29T03:50:03.939Z,7
2015-09-29T03:50:22.537Z,7
2015-09-29T03:50:40.896Z,7
2015-09-29T03:50:59.287Z,7
2015-09-29T03:51:17.711Z,7
2015-09-29T03:51:36.289Z,7
2015-09-29T03:51:54.679Z,7
2015-09-29T03:52:13.320Z,7
2015-09-29T03:52:31.714Z,6.9
2015-09-29T03:52:50.151Z,6.9
2015-09-29T03:53:08.542Z,6.9
2015-09-29T03:53:26.920Z,6.9
2015-09-29T03:53:45.279Z,6.9
2015-09-29T03:54:03.842Z,6.9
2015-09-29T03:54:22.204Z,6.9
2015-09-29T03:54:40.610Z,6.9
2015-09-29T03:54:59.048Z,6.8
2015-09-29T03:55:17.438Z,6.9
2015-09-29T03:55:36.003Z,6.9
2015-09-29T03:55:54.362Z,6.8
2015-09-29T03:56:12.784Z,6.9
2015-09-29T03:56:31.412Z,6.9
2015-09-29T03:56:49.787Z,6.9
2015-09-29T03:57:08.193Z,7
2015-09-29T03:57:26.570Z,6.9
2015-09-29T03:57:45.070Z,6.9
2015-09-29T03:58:03.461Z,6.8
2015-09-29T03:58:21.883Z,6.8
2015-09-29T03:58:40.355Z,6.8
2015-09-29T03:58:58.745Z,6.8
2015-09-29T03:59:17.308Z,6.8
2015-09-29T03:59:35.733Z,6.8
2015-09-29T03:59:54.186Z,6.8
2015-09-29T04:00:12.545Z,6.8
2015-09-29T04:00:30.923Z,6.8
2015-09-29T04:00:49.314Z,6.8
2015-09-29T04:01:07.892Z,6.8
2015-09-29T04:01:26.392Z,6.8
2015-09-29T04:01:44.831Z,6.8
2015-09-29T04:02:03.410Z,6.8
2015-09-29T04:02:21.785Z,6.8
2015-09-29T04:02:40.147Z,6.8
2015-09-29T04:02:58.584Z,6.8
2015-09-29T04:03:17.225Z,6.8
2015-09-29T04:03:35.759Z,6.8
2015-09-29T04:03:54.197Z,6.8
2015-09-29T04:04:12.916Z,6.8
2015-09-29T04:04:31.431Z,6.8
2015-09-29T04:04:49.887Z,6.8
2015-09-29T04:05:08.403Z,6.8
2015-09-29T04:05:26.794Z,6.8
2015-09-29T04:05:45.187Z,6.8
2015-09-29T04:06:03.578Z,6.8
2015-09-29T04:06:21.968Z,6.9
2015-09-29T04:06:40.425Z,6.9
2015-09-29T04:06:58.800Z,6.9
2015-09-29T04:07:17.346Z,6.9
2015-09-29T04:07:35.770Z,6.8
2015-09-29T04:07:54.411Z,6.8
2015-09-29T04:08:12.833Z,6.8
2015-09-29T04:08:31.239Z,6.8
2015-09-29T04:08:49.773Z,6.9
2015-09-29T04:09:08.242Z,6.8
2015-09-29T04:09:26.664Z,6.8
2015-09-29T04:09:45.072Z,6.8
2015-09-29T04:10:03.432Z,6.8
2015-09-29T04:10:21.838Z,6.8
2015-09-29T04:10:40.247Z,6.8
2015-09-29T04:10:58.622Z,6.8
2015-09-29T04:11:17.013Z,6.8
2015-09-29T04:11:35.419Z,6.7
2015-09-29T04:11:53.875Z,6.7
2015-09-29T04:12:12.250Z,6.7
2015-09-29T04:12:30.719Z,6.7
2015-09-29T04:12:49.236Z,6.7
2015-09-29T04:13:07.627Z,6.7
2015-09-29T04:13:26.065Z,6.7
2015-09-29T04:13:44.661Z,6.8
2015-09-29T04:14:03.396Z,6.8
2015-09-29T04:14:21.818Z,6.8
2015-09-29T04:14:40.286Z,6.9
2015-09-29T04:14:58.774Z,6.9